PWSweather.com
Personal Weather Stations
Station Observations
719732
Ponferrada, PonferradaES 24411

PonferradaPonferradaES 24411

Lat: 42.5728, Lon: -6.6425

Elevation: 1676

Station Type: PCE-FWS 20 con garita Ambient Weather SRS100LX

www.meteo.spyfly.es

High Low Average
Temperature 73.4°F23.0°C 30.7°F-0.7°C 49.0°F9.4°C
Dew Point 42.8°F6.0°C 25.5°F-3.6°C 35.5°F1.9°C
Winds 3.1 mph 5.0 kmh Calm Calm 1.0 mph SSE1.6 kmh SSE
Wind Gusts 5.4 mph8.7 kmh -- 3.0 mph4.8 kmh
Humidity 96% 17% 66%
Pressure 30.47 in1031.8 mb 30.31 in1026.4 mb -
Precipitation 0.00 in0.0 mm - -
Hour Temp Dew Point Humidity Winds Wind Gusts Pressure Precip Precip Rate Daily Precip Total
12:00 AM 40.8°F4.9°C 35.8°F2.1°C 82% Calm Calm 1.6 mph2.6 kmh 30.43 in1030.5 mb 0.00 in0.0 mm 0.00 in0.0 mm 0.00 in0.0 mm
12:05 AM 40.8°F4.9°C 35.8°F2.1°C 82% Calm Calm 1.6 mph2.6 kmh 30.44 in1030.8 mb 0.00 in0.0 mm 0.00 in0.0 mm 0.00 in0.0 mm
12:10 AM 40.6°F4.8°C 36.2°F2.3°C 84% 0.7 mph SE1.1 kmh SE 1.6 mph2.6 kmh 30.44 in1030.8 mb 0.00 in0.0 mm 0.00 in0.0 mm 0.00 in0.0 mm
12:15 AM 40.6°F4.8°C 36.2°F2.3°C 84% Calm Calm 1.6 mph2.6 kmh 30.43 in1030.5 mb 0.00 in0.0 mm 0.00 in0.0 mm 0.00 in0.0 mm
12:20 AM 40.5°F4.7°C 36.0°F2.2°C 84% 0.7 mph E1.1 kmh E 3.1 mph5.0 kmh 30.43 in1030.5 mb 0.00 in0.0 mm 0.00 in0.0 mm 0.00 in0.0 mm
12:25 AM 40.3°F4.6°C 35.8°F2.1°C 84% Calm Calm 3.1 mph5.0 kmh 30.44 in1030.8 mb 0.00 in0.0 mm 0.00 in0.0 mm 0.00 in0.0 mm
12:30 AM 39.9°F4.4°C 35.5°F1.9°C 84% 0.7 mph SE1.1 kmh SE 1.6 mph2.6 kmh 30.43 in1030.5 mb 0.00 in0.0 mm 0.00 in0.0 mm 0.00 in0.0 mm
12:35 AM 39.7°F4.3°C 35.3°F1.8°C 84% Calm Calm 2.2 mph3.5 kmh 30.43 in1030.5 mb 0.00 in0.0 mm 0.00 in0.0 mm 0.00 in0.0 mm
12:40 AM 39.4°F4.1°C 35.0°F1.7°C 84% 1.6 mph E2.6 kmh E 3.1 mph5.0 kmh 30.43 in1030.5 mb 0.00 in0.0 mm 0.00 in0.0 mm 0.00 in0.0 mm
12:45 AM 39.4°F4.1°C 35.3°F1.8°C 85% Calm Calm 3.1 mph5.0 kmh 30.43 in1030.5 mb 0.00 in0.0 mm 0.00 in0.0 mm 0.00 in0.0 mm
12:50 AM 39.0°F3.9°C 35.2°F1.8°C 86% Calm Calm 2.2 mph3.5 kmh 30.44 in1030.8 mb 0.00 in0.0 mm 0.00 in0.0 mm 0.00 in0.0 mm
12:55 AM 38.8°F3.8°C 35.0°F1.7°C 86% Calm Calm 1.6 mph2.6 kmh 30.44 in1030.8 mb 0.00 in0.0 mm 0.00 in0.0 mm 0.00 in0.0 mm
01:00 AM 38.7°F3.7°C 34.8°F1.6°C 86% Calm Calm 1.6 mph2.6 kmh 30.44 in1030.8 mb 0.00 in0.0 mm 0.00 in0.0 mm 0.00 in0.0 mm
01:05 AM 38.7°F3.7°C 35.1°F1.7°C 87% 1.6 mph NNE2.6 kmh NNE 3.1 mph5.0 kmh 30.44 in1030.8 mb 0.00 in0.0 mm 0.00 in0.0 mm 0.00 in0.0 mm
01:10 AM 38.7°F3.7°C 35.1°F1.7°C 87% 1.6 mph E2.6 kmh E 3.1 mph5.0 kmh 30.44 in1030.8 mb 0.00 in0.0 mm 0.00 in0.0 mm 0.00 in0.0 mm
01:15 AM 38.7°F3.7°C 35.1°F1.7°C 87% Calm Calm 3.1 mph5.0 kmh 30.44 in1030.8 mb 0.00 in0.0 mm 0.00 in0.0 mm 0.00 in0.0 mm
01:20 AM 38.5°F3.6°C 35.0°F1.7°C 87% Calm Calm 3.1 mph5.0 kmh 30.44 in1030.8 mb 0.00 in0.0 mm 0.00 in0.0 mm 0.00 in0.0 mm
01:25 AM 38.1°F3.4°C 34.6°F1.4°C 87% 0.7 mph ESE1.1 kmh ESE 2.2 mph3.5 kmh 30.44 in1030.8 mb 0.00 in0.0 mm 0.00 in0.0 mm 0.00 in0.0 mm
01:30 AM 37.9°F3.3°C 34.4°F1.3°C 87% 2.2 mph E3.5 kmh E 3.1 mph5.0 kmh 30.44 in1030.8 mb 0.00 in0.0 mm 0.00 in0.0 mm 0.00 in0.0 mm
01:35 AM 37.8°F3.2°C 34.2°F1.2°C 87% 0.7 mph E1.1 kmh E 3.1 mph5.0 kmh 30.44 in1030.8 mb 0.00 in0.0 mm 0.00 in0.0 mm 0.00 in0.0 mm
01:40 AM 37.8°F3.2°C 34.2°F1.2°C 87% 0.7 mph E1.1 kmh E 3.1 mph5.0 kmh 30.44 in1030.8 mb 0.00 in0.0 mm 0.00 in0.0 mm 0.00 in0.0 mm
01:45 AM 37.6°F3.1°C 34.4°F1.3°C 88% Calm Calm 1.6 mph2.6 kmh 30.44 in1030.8 mb 0.00 in0.0 mm 0.00 in0.0 mm 0.00 in0.0 mm
01:50 AM 37.4°F3.0°C 34.2°F1.2°C 88% 1.6 mph E2.6 kmh E 2.2 mph3.5 kmh 30.44 in1030.8 mb 0.00 in0.0 mm 0.00 in0.0 mm 0.00 in0.0 mm
01:55 AM 37.4°F3.0°C 34.2°F1.2°C 88% 0.7 mph E1.1 kmh E 3.1 mph5.0 kmh 30.44 in1030.8 mb 0.00 in0.0 mm 0.00 in0.0 mm 0.00 in0.0 mm
02:00 AM 37.6°F3.1°C 34.4°F1.3°C 88% 1.6 mph E2.6 kmh E 3.1 mph5.0 kmh 30.44 in1030.8 mb 0.00 in0.0 mm 0.00 in0.0 mm 0.00 in0.0 mm
02:05 AM 37.6°F3.1°C 34.4°F1.3°C 88% 1.6 mph SE2.6 kmh SE 3.1 mph5.0 kmh 30.44 in1030.8 mb 0.00 in0.0 mm 0.00 in0.0 mm 0.00 in0.0 mm
02:10 AM 37.6°F3.1°C 34.6°F1.4°C 89% 1.6 mph ESE2.6 kmh ESE 3.1 mph5.0 kmh 30.44 in1030.8 mb 0.00 in0.0 mm 0.00 in0.0 mm 0.00 in0.0 mm
02:15 AM 37.6°F3.1°C 34.4°F1.3°C 88% 0.7 mph E1.1 kmh E 3.1 mph5.0 kmh 30.44 in1030.8 mb 0.00 in0.0 mm 0.00 in0.0 mm 0.00 in0.0 mm
02:20 AM 37.4°F3.0°C 34.2°F1.2°C 88% 1.6 mph E2.6 kmh E 2.2 mph3.5 kmh 30.44 in1030.8 mb 0.00 in0.0 mm 0.00 in0.0 mm 0.00 in0.0 mm
02:25 AM 37.4°F3.0°C 34.2°F1.2°C 88% 0.7 mph E1.1 kmh E 2.2 mph3.5 kmh 30.44 in1030.8 mb 0.00 in0.0 mm 0.00 in0.0 mm 0.00 in0.0 mm
02:30 AM 37.2°F2.9°C 32.8°F0.4°C 84% 0.7 mph E1.1 kmh E 2.2 mph3.5 kmh 30.44 in1030.8 mb 0.00 in0.0 mm 0.00 in0.0 mm 0.00 in0.0 mm
02:35 AM 37.2°F2.9°C 32.8°F0.4°C 84% 0.7 mph E1.1 kmh E 1.6 mph2.6 kmh 30.44 in1030.8 mb 0.00 in0.0 mm 0.00 in0.0 mm 0.00 in0.0 mm
02:40 AM 37.2°F2.9°C 32.8°F0.4°C 84% 0.7 mph E1.1 kmh E 2.2 mph3.5 kmh 30.43 in1030.5 mb 0.00 in0.0 mm 0.00 in0.0 mm 0.00 in0.0 mm
02:45 AM 37.2°F2.9°C 33.1°F0.6°C 85% 0.7 mph E1.1 kmh E 2.2 mph3.5 kmh 30.44 in1030.8 mb 0.00 in0.0 mm 0.00 in0.0 mm 0.00 in0.0 mm
02:50 AM 37.0°F2.8°C 32.7°F0.4°C 84% 1.6 mph E2.6 kmh E 3.1 mph5.0 kmh 30.43 in1030.5 mb 0.00 in0.0 mm 0.00 in0.0 mm 0.00 in0.0 mm
02:55 AM 36.9°F2.7°C 32.5°F0.3°C 84% Calm Calm 3.1 mph5.0 kmh 30.44 in1030.8 mb 0.00 in0.0 mm 0.00 in0.0 mm 0.00 in0.0 mm
03:00 AM 36.5°F2.5°C 32.1°F0.1°C 84% Calm Calm 2.2 mph3.5 kmh 30.43 in1030.5 mb 0.00 in0.0 mm 0.00 in0.0 mm 0.00 in0.0 mm
03:05 AM 36.1°F2.3°C 31.8°F-0.1°C 84% 0.7 mph N1.1 kmh N 2.2 mph3.5 kmh 30.43 in1030.5 mb 0.00 in0.0 mm 0.00 in0.0 mm 0.00 in0.0 mm
03:10 AM 35.8°F2.1°C 31.4°F-0.3°C 84% Calm Calm 2.2 mph3.5 kmh 30.44 in1030.8 mb 0.00 in0.0 mm 0.00 in0.0 mm 0.00 in0.0 mm
03:15 AM 35.4°F1.9°C 31.4°F-0.3°C 85% Calm Calm 1.6 mph2.6 kmh 30.43 in1030.5 mb 0.00 in0.0 mm 0.00 in0.0 mm 0.00 in0.0 mm
03:20 AM 35.2°F1.8°C 31.2°F-0.4°C 85% Calm Calm 1.6 mph2.6 kmh 30.43 in1030.5 mb 0.00 in0.0 mm 0.00 in0.0 mm 0.00 in0.0 mm
03:25 AM 35.1°F1.7°C 31.3°F-0.4°C 86% Calm Calm -- 30.43 in1030.5 mb 0.00 in0.0 mm 0.00 in0.0 mm 0.00 in0.0 mm
03:30 AM 35.1°F1.7°C 31.3°F-0.4°C 86% 1.6 mph ESE2.6 kmh ESE 2.2 mph3.5 kmh 30.43 in1030.5 mb 0.00 in0.0 mm 0.00 in0.0 mm 0.00 in0.0 mm
03:35 AM 35.2°F1.8°C 31.8°F-0.1°C 87% 0.7 mph ESE1.1 kmh ESE 2.2 mph3.5 kmh 30.43 in1030.5 mb 0.00 in0.0 mm 0.00 in0.0 mm 0.00 in0.0 mm
03:40 AM 35.4°F1.9°C 31.9°F-0.1°C 87% 0.7 mph ESE1.1 kmh ESE 2.2 mph3.5 kmh 30.43 in1030.5 mb 0.00 in0.0 mm 0.00 in0.0 mm 0.00 in0.0 mm
03:50 AM 35.1°F1.7°C 31.6°F-0.2°C 87% 0.7 mph E1.1 kmh E 1.6 mph2.6 kmh 30.43 in1030.5 mb 0.00 in0.0 mm 0.00 in0.0 mm 0.00 in0.0 mm
03:55 AM 34.9°F1.6°C 31.4°F-0.3°C 87% Calm Calm 1.6 mph2.6 kmh 30.43 in1030.5 mb 0.00 in0.0 mm 0.00 in0.0 mm 0.00 in0.0 mm
04:00 AM 34.7°F1.5°C 31.2°F-0.4°C 87% 0.7 mph E1.1 kmh E 1.6 mph2.6 kmh 30.43 in1030.5 mb 0.00 in0.0 mm 0.00 in0.0 mm 0.00 in0.0 mm
04:05 AM 34.7°F1.5°C 31.2°F-0.4°C 87% 0.7 mph E1.1 kmh E 1.6 mph2.6 kmh 30.43 in1030.5 mb 0.00 in0.0 mm 0.00 in0.0 mm 0.00 in0.0 mm
04:10 AM 34.7°F1.5°C 31.5°F-0.3°C 88% 0.7 mph ESE1.1 kmh ESE 1.6 mph2.6 kmh 30.43 in1030.5 mb 0.00 in0.0 mm 0.00 in0.0 mm 0.00 in0.0 mm
04:15 AM 34.7°F1.5°C 31.5°F-0.3°C 88% 1.6 mph ESE2.6 kmh ESE 2.2 mph3.5 kmh 30.43 in1030.5 mb 0.00 in0.0 mm 0.00 in0.0 mm 0.00 in0.0 mm
04:20 AM 34.7°F1.5°C 31.5°F-0.3°C 88% 0.7 mph E1.1 kmh E 3.1 mph5.0 kmh 30.43 in1030.5 mb 0.00 in0.0 mm 0.00 in0.0 mm 0.00 in0.0 mm
04:25 AM 34.5°F1.4°C 31.3°F-0.4°C 88% 0.7 mph ENE1.1 kmh ENE 3.1 mph5.0 kmh 30.43 in1030.5 mb 0.00 in0.0 mm 0.00 in0.0 mm 0.00 in0.0 mm
04:30 AM 34.3°F1.3°C 31.2°F-0.4°C 88% Calm Calm 2.2 mph3.5 kmh 30.43 in1030.5 mb 0.00 in0.0 mm 0.00 in0.0 mm 0.00 in0.0 mm
04:35 AM 34.2°F1.2°C 31.0°F-0.6°C 88% 0.7 mph E1.1 kmh E 1.6 mph2.6 kmh 30.43 in1030.5 mb 0.00 in0.0 mm 0.00 in0.0 mm 0.00 in0.0 mm
04:40 AM 34.0°F1.1°C 30.8°F-0.7°C 88% Calm Calm 1.6 mph2.6 kmh 30.43 in1030.5 mb 0.00 in0.0 mm 0.00 in0.0 mm 0.00 in0.0 mm
04:45 AM 33.8°F1.0°C 30.6°F-0.8°C 88% Calm Calm 1.6 mph2.6 kmh 30.42 in1030.1 mb 0.00 in0.0 mm 0.00 in0.0 mm 0.00 in0.0 mm
04:50 AM 33.6°F0.9°C 30.7°F-0.7°C 89% Calm Calm 1.6 mph2.6 kmh 30.43 in1030.5 mb 0.00 in0.0 mm 0.00 in0.0 mm 0.00 in0.0 mm
04:55 AM 33.4°F0.8°C 30.6°F-0.8°C 89% 0.7 mph NNE1.1 kmh NNE 1.6 mph2.6 kmh 30.43 in1030.5 mb 0.00 in0.0 mm 0.00 in0.0 mm 0.00 in0.0 mm
05:00 AM 33.3°F0.7°C 30.4°F-0.9°C 89% Calm Calm 1.6 mph2.6 kmh 30.43 in1030.5 mb 0.00 in0.0 mm 0.00 in0.0 mm 0.00 in0.0 mm
05:05 AM 33.1°F0.6°C 30.5°F-0.8°C 90% Calm Calm 1.6 mph2.6 kmh 30.43 in1030.5 mb 0.00 in0.0 mm 0.00 in0.0 mm 0.00 in0.0 mm
05:10 AM 32.9°F0.5°C 30.3°F-0.9°C 90% Calm Calm 1.6 mph2.6 kmh 30.43 in1030.5 mb 0.00 in0.0 mm 0.00 in0.0 mm 0.00 in0.0 mm
05:15 AM 32.7°F0.4°C 30.1°F-1.1°C 90% 0.7 mph ENE1.1 kmh ENE 2.2 mph3.5 kmh 30.43 in1030.5 mb 0.00 in0.0 mm 0.00 in0.0 mm 0.00 in0.0 mm
05:20 AM 32.5°F0.3°C 29.9°F-1.2°C 90% Calm Calm 2.2 mph3.5 kmh 30.43 in1030.5 mb 0.00 in0.0 mm 0.00 in0.0 mm 0.00 in0.0 mm
05:25 AM 32.7°F0.4°C 30.4°F-0.9°C 91% 0.7 mph E1.1 kmh E 1.6 mph2.6 kmh 30.43 in1030.5 mb 0.00 in0.0 mm 0.00 in0.0 mm 0.00 in0.0 mm
05:30 AM 32.9°F0.5°C 30.8°F-0.7°C 92% 0.7 mph E1.1 kmh E 2.2 mph3.5 kmh 30.43 in1030.5 mb 0.00 in0.0 mm 0.00 in0.0 mm 0.00 in0.0 mm
05:35 AM 32.9°F0.5°C 30.8°F-0.7°C 92% 1.6 mph E2.6 kmh E 2.2 mph3.5 kmh 30.43 in1030.5 mb 0.00 in0.0 mm 0.00 in0.0 mm 0.00 in0.0 mm
05:40 AM 33.1°F0.6°C 31.3°F-0.4°C 93% 0.7 mph E1.1 kmh E 2.2 mph3.5 kmh 30.43 in1030.5 mb 0.00 in0.0 mm 0.00 in0.0 mm 0.00 in0.0 mm
05:45 AM 33.1°F0.6°C 31.3°F-0.4°C 93% 1.6 mph E2.6 kmh E 2.2 mph3.5 kmh 30.43 in1030.5 mb 0.00 in0.0 mm 0.00 in0.0 mm 0.00 in0.0 mm
05:50 AM 33.1°F0.6°C 31.3°F-0.4°C 93% 0.7 mph E1.1 kmh E 2.2 mph3.5 kmh 30.43 in1030.5 mb 0.00 in0.0 mm 0.00 in0.0 mm 0.00 in0.0 mm
05:55 AM 33.1°F0.6°C 31.3°F-0.4°C 93% Calm Calm 2.2 mph3.5 kmh 30.43 in1030.5 mb 0.00 in0.0 mm 0.00 in0.0 mm 0.00 in0.0 mm
06:00 AM 32.9°F0.5°C 31.1°F-0.5°C 93% Calm Calm 1.6 mph2.6 kmh 30.43 in1030.5 mb 0.00 in0.0 mm 0.00 in0.0 mm 0.00 in0.0 mm
06:05 AM 32.7°F0.4°C 30.9°F-0.6°C 93% Calm Calm 0.7 mph1.1 kmh 30.43 in1030.5 mb 0.00 in0.0 mm 0.00 in0.0 mm 0.00 in0.0 mm
06:10 AM 32.5°F0.3°C 30.8°F-0.7°C 93% Calm Calm 0.7 mph1.1 kmh 30.43 in1030.5 mb 0.00 in0.0 mm 0.00 in0.0 mm 0.00 in0.0 mm
06:15 AM 32.4°F0.2°C 30.6°F-0.8°C 93% Calm Calm 0.7 mph1.1 kmh 30.43 in1030.5 mb 0.00 in0.0 mm 0.00 in0.0 mm 0.00 in0.0 mm
06:20 AM 32.4°F0.2°C 30.6°F-0.8°C 93% 0.7 mph E1.1 kmh E 2.2 mph3.5 kmh 30.43 in1030.5 mb 0.00 in0.0 mm 0.00 in0.0 mm 0.00 in0.0 mm
06:25 AM 32.4°F0.2°C 30.6°F-0.8°C 93% 0.7 mph E1.1 kmh E 2.2 mph3.5 kmh 30.43 in1030.5 mb 0.00 in0.0 mm 0.00 in0.0 mm 0.00 in0.0 mm
06:30 AM 32.4°F0.2°C 30.6°F-0.8°C 93% 0.7 mph E1.1 kmh E 2.2 mph3.5 kmh 30.43 in1030.5 mb 0.00 in0.0 mm 0.00 in0.0 mm 0.00 in0.0 mm
06:35 AM 32.5°F0.3°C 30.8°F-0.7°C 93% 0.7 mph E1.1 kmh E 1.6 mph2.6 kmh 30.43 in1030.5 mb 0.00 in0.0 mm 0.00 in0.0 mm 0.00 in0.0 mm
06:40 AM 32.5°F0.3°C 30.8°F-0.7°C 93% Calm Calm 1.6 mph2.6 kmh 30.43 in1030.5 mb 0.00 in0.0 mm 0.00 in0.0 mm 0.00 in0.0 mm
06:45 AM 32.2°F0.1°C 30.4°F-0.9°C 93% Calm Calm 1.6 mph2.6 kmh 30.43 in1030.5 mb 0.00 in0.0 mm 0.00 in0.0 mm 0.00 in0.0 mm
06:50 AM 32.0°F0.0°C 30.2°F-1.0°C 93% Calm Calm 1.6 mph2.6 kmh 30.43 in1030.5 mb 0.00 in0.0 mm 0.00 in0.0 mm 0.00 in0.0 mm
06:55 AM 31.8°F-0.1°C 30.3°F-0.9°C 94% Calm Calm 1.6 mph2.6 kmh 30.43 in1030.5 mb 0.00 in0.0 mm 0.00 in0.0 mm 0.00 in0.0 mm
07:00 AM 31.6°F-0.2°C 30.1°F-1.1°C 94% 0.7 mph E1.1 kmh E 1.6 mph2.6 kmh 30.44 in1030.8 mb 0.00 in0.0 mm 0.00 in0.0 mm 0.00 in0.0 mm
07:05 AM 31.8°F-0.1°C 30.3°F-0.9°C 94% 0.7 mph E1.1 kmh E 2.2 mph3.5 kmh 30.43 in1030.5 mb 0.00 in0.0 mm 0.00 in0.0 mm 0.00 in0.0 mm
07:10 AM 31.6°F-0.2°C 30.1°F-1.1°C 94% Calm Calm 2.2 mph3.5 kmh 30.43 in1030.5 mb 0.00 in0.0 mm 0.00 in0.0 mm 0.00 in0.0 mm
07:15 AM 31.6°F-0.2°C 30.1°F-1.1°C 94% 1.6 mph E2.6 kmh E 3.1 mph5.0 kmh 30.43 in1030.5 mb 0.00 in0.0 mm 0.00 in0.0 mm 0.00 in0.0 mm
07:20 AM 31.6°F-0.2°C 30.1°F-1.1°C 94% Calm Calm 3.1 mph5.0 kmh 30.43 in1030.5 mb 0.00 in0.0 mm 0.00 in0.0 mm 0.00 in0.0 mm
07:25 AM 31.6°F-0.2°C 30.1°F-1.1°C 94% Calm Calm 2.2 mph3.5 kmh 30.43 in1030.5 mb 0.00 in0.0 mm 0.00 in0.0 mm 0.00 in0.0 mm
07:30 AM 31.5°F-0.3°C 29.9°F-1.2°C 94% Calm Calm 1.6 mph2.6 kmh 30.43 in1030.5 mb 0.00 in0.0 mm 0.00 in0.0 mm 0.00 in0.0 mm
07:35 AM 31.3°F-0.4°C 30.0°F-1.1°C 95% Calm Calm 1.6 mph2.6 kmh 30.44 in1030.8 mb 0.00 in0.0 mm 0.00 in0.0 mm 0.00 in0.0 mm
07:40 AM 31.3°F-0.4°C 30.0°F-1.1°C 95% 0.7 mph N1.1 kmh N 1.6 mph2.6 kmh 30.44 in1030.8 mb 0.00 in0.0 mm 0.00 in0.0 mm 0.00 in0.0 mm
07:45 AM 31.1°F-0.5°C 29.8°F-1.2°C 95% Calm Calm 1.6 mph2.6 kmh 30.44 in1030.8 mb 0.00 in0.0 mm 0.00 in0.0 mm 0.00 in0.0 mm
07:50 AM 30.9°F-0.6°C 29.7°F-1.3°C 95% Calm Calm 1.6 mph2.6 kmh 30.44 in1030.8 mb 0.00 in0.0 mm 0.00 in0.0 mm 0.00 in0.0 mm
07:55 AM 30.9°F-0.6°C 29.7°F-1.3°C 95% Calm Calm 0.7 mph1.1 kmh 30.44 in1030.8 mb 0.00 in0.0 mm 0.00 in0.0 mm 0.00 in0.0 mm
08:00 AM 30.7°F-0.7°C 29.5°F-1.4°C 95% 0.7 mph NNE1.1 kmh NNE 1.6 mph2.6 kmh 30.44 in1030.8 mb 0.00 in0.0 mm 0.00 in0.0 mm 0.00 in0.0 mm
08:05 AM 30.9°F-0.6°C 29.7°F-1.3°C 95% Calm Calm 1.6 mph2.6 kmh 30.44 in1030.8 mb 0.00 in0.0 mm 0.00 in0.0 mm 0.00 in0.0 mm
08:10 AM 31.1°F-0.5°C 29.8°F-1.2°C 95% Calm Calm 1.6 mph2.6 kmh 30.44 in1030.8 mb 0.00 in0.0 mm 0.00 in0.0 mm 0.00 in0.0 mm
08:15 AM 31.1°F-0.5°C 29.8°F-1.2°C 95% 1.6 mph E2.6 kmh E 3.1 mph5.0 kmh 30.44 in1030.8 mb 0.00 in0.0 mm 0.00 in0.0 mm 0.00 in0.0 mm
08:20 AM 31.3°F-0.4°C 30.0°F-1.1°C 95% 0.7 mph E1.1 kmh E 3.1 mph5.0 kmh 30.45 in1031.2 mb 0.00 in0.0 mm 0.00 in0.0 mm 0.00 in0.0 mm
08:25 AM 31.5°F-0.3°C 30.5°F-0.8°C 96% Calm Calm 3.1 mph5.0 kmh 30.45 in1031.2 mb 0.00 in0.0 mm 0.00 in0.0 mm 0.00 in0.0 mm
08:30 AM 31.5°F-0.3°C 30.5°F-0.8°C 96% Calm Calm 1.6 mph2.6 kmh 30.44 in1030.8 mb 0.00 in0.0 mm 0.00 in0.0 mm 0.00 in0.0 mm
08:35 AM 31.5°F-0.3°C 30.5°F-0.8°C 96% Calm Calm 0.7 mph1.1 kmh 30.45 in1031.2 mb 0.00 in0.0 mm 0.00 in0.0 mm 0.00 in0.0 mm
08:40 AM 31.6°F-0.2°C 30.6°F-0.8°C 96% Calm Calm 0.7 mph1.1 kmh 30.45 in1031.2 mb 0.00 in0.0 mm 0.00 in0.0 mm 0.00 in0.0 mm
08:45 AM 32.0°F0.0°C 30.7°F-0.7°C 95% 0.7 mph ESE1.1 kmh ESE 2.2 mph3.5 kmh 30.45 in1031.2 mb 0.00 in0.0 mm 0.00 in0.0 mm 0.00 in0.0 mm
08:50 AM 32.2°F0.1°C 30.9°F-0.6°C 95% 1.6 mph ESE2.6 kmh ESE 2.2 mph3.5 kmh 30.45 in1031.2 mb 0.00 in0.0 mm 0.00 in0.0 mm 0.00 in0.0 mm
08:55 AM 32.4°F0.2°C 31.1°F-0.5°C 95% 2.2 mph E3.5 kmh E 3.1 mph5.0 kmh 30.45 in1031.2 mb 0.00 in0.0 mm 0.00 in0.0 mm 0.00 in0.0 mm
09:00 AM 32.7°F0.4°C 31.7°F-0.2°C 96% 1.6 mph E2.6 kmh E 3.1 mph5.0 kmh 30.46 in1031.5 mb 0.00 in0.0 mm 0.00 in0.0 mm 0.00 in0.0 mm
09:05 AM 33.3°F0.7°C 32.3°F0.2°C 96% 0.7 mph E1.1 kmh E 3.1 mph5.0 kmh 30.46 in1031.5 mb 0.00 in0.0 mm 0.00 in0.0 mm 0.00 in0.0 mm
09:10 AM 33.8°F1.0°C 32.5°F0.3°C 95% 1.6 mph E2.6 kmh E 2.2 mph3.5 kmh 30.46 in1031.5 mb 0.00 in0.0 mm 0.00 in0.0 mm 0.00 in0.0 mm
09:15 AM 34.5°F1.4°C 33.2°F0.7°C 95% Calm Calm 2.2 mph3.5 kmh 30.46 in1031.5 mb 0.00 in0.0 mm 0.00 in0.0 mm 0.00 in0.0 mm
09:20 AM 35.2°F1.8°C 34.0°F1.1°C 95% 0.7 mph N1.1 kmh N 2.2 mph3.5 kmh 30.46 in1031.5 mb 0.00 in0.0 mm 0.00 in0.0 mm 0.00 in0.0 mm
09:25 AM 35.8°F2.1°C 34.0°F1.1°C 93% Calm Calm 1.6 mph2.6 kmh 30.46 in1031.5 mb 0.00 in0.0 mm 0.00 in0.0 mm 0.00 in0.0 mm
09:30 AM 36.5°F2.5°C 34.7°F1.5°C 93% Calm Calm 1.6 mph2.6 kmh 30.46 in1031.5 mb 0.00 in0.0 mm 0.00 in0.0 mm 0.00 in0.0 mm
09:35 AM 37.2°F2.9°C 35.4°F1.9°C 93% Calm Calm 1.6 mph2.6 kmh 30.47 in1031.8 mb 0.00 in0.0 mm 0.00 in0.0 mm 0.00 in0.0 mm
09:40 AM 38.7°F3.7°C 37.6°F3.1°C 96% Calm Calm 1.6 mph2.6 kmh 30.47 in1031.8 mb 0.00 in0.0 mm 0.00 in0.0 mm 0.00 in0.0 mm
09:45 AM 40.1°F4.5°C 38.8°F3.8°C 95% Calm Calm 1.6 mph2.6 kmh 30.47 in1031.8 mb 0.00 in0.0 mm 0.00 in0.0 mm 0.00 in0.0 mm
09:50 AM 41.4°F5.2°C 39.5°F4.2°C 93% Calm Calm 1.6 mph2.6 kmh 30.47 in1031.8 mb 0.00 in0.0 mm 0.00 in0.0 mm 0.00 in0.0 mm
09:55 AM 42.4°F5.8°C 39.7°F4.3°C 90% 0.7 mph SE1.1 kmh SE 2.2 mph3.5 kmh 30.47 in1031.8 mb 0.00 in0.0 mm 0.00 in0.0 mm 0.00 in0.0 mm
10:00 AM 43.2°F6.2°C 39.3°F4.1°C 86% 1.6 mph SE2.6 kmh SE 2.2 mph3.5 kmh 30.47 in1031.8 mb 0.00 in0.0 mm 0.00 in0.0 mm 0.00 in0.0 mm
10:05 AM 43.9°F6.6°C 39.1°F3.9°C 83% 0.7 mph S1.1 kmh S 2.2 mph3.5 kmh 30.47 in1031.8 mb 0.00 in0.0 mm 0.00 in0.0 mm 0.00 in0.0 mm
10:10 AM 44.6°F7.0°C 39.1°F3.9°C 81% Calm Calm 2.2 mph3.5 kmh 30.47 in1031.8 mb 0.00 in0.0 mm 0.00 in0.0 mm 0.00 in0.0 mm
10:15 AM 45.3°F7.4°C 38.9°F3.8°C 78% Calm Calm 2.2 mph3.5 kmh 30.47 in1031.8 mb 0.00 in0.0 mm 0.00 in0.0 mm 0.00 in0.0 mm
10:20 AM 46.2°F7.9°C 39.1°F3.9°C 76% Calm Calm 1.6 mph2.6 kmh 30.47 in1031.8 mb 0.00 in0.0 mm 0.00 in0.0 mm 0.00 in0.0 mm
10:25 AM 46.6°F8.1°C 39.1°F3.9°C 75% Calm Calm 1.6 mph2.6 kmh 30.47 in1031.8 mb 0.00 in0.0 mm 0.00 in0.0 mm 0.00 in0.0 mm
10:30 AM 46.6°F8.1°C 39.1°F3.9°C 75% Calm Calm 1.6 mph2.6 kmh 30.47 in1031.8 mb 0.00 in0.0 mm 0.00 in0.0 mm 0.00 in0.0 mm
10:35 AM 46.9°F8.3°C 39.1°F3.9°C 74% 0.7 mph WSW1.1 kmh WSW 2.2 mph3.5 kmh 30.47 in1031.8 mb 0.00 in0.0 mm 0.00 in0.0 mm 0.00 in0.0 mm
10:40 AM 47.7°F8.7°C 39.4°F4.1°C 73% Calm Calm 2.2 mph3.5 kmh 30.47 in1031.8 mb 0.00 in0.0 mm 0.00 in0.0 mm 0.00 in0.0 mm
10:45 AM 48.4°F9.1°C 39.4°F4.1°C 71% 0.7 mph W1.1 kmh W 2.2 mph3.5 kmh 30.47 in1031.8 mb 0.00 in0.0 mm 0.00 in0.0 mm 0.00 in0.0 mm
10:50 AM 49.1°F9.5°C 40.1°F4.5°C 71% 1.6 mph WSW2.6 kmh WSW 2.2 mph3.5 kmh 30.47 in1031.8 mb 0.00 in0.0 mm 0.00 in0.0 mm 0.00 in0.0 mm
10:55 AM 50.0°F10.0°C 40.2°F4.6°C 69% 1.6 mph SSW2.6 kmh SSW 2.2 mph3.5 kmh 30.47 in1031.8 mb 0.00 in0.0 mm 0.00 in0.0 mm 0.00 in0.0 mm
11:00 AM 50.2°F10.1°C 39.7°F4.3°C 67% 1.6 mph SW2.6 kmh SW 2.2 mph3.5 kmh 30.47 in1031.8 mb 0.00 in0.0 mm 0.00 in0.0 mm 0.00 in0.0 mm
11:05 AM 50.2°F10.1°C 39.3°F4.1°C 66% 0.7 mph WSW1.1 kmh WSW 2.2 mph3.5 kmh 30.47 in1031.8 mb 0.00 in0.0 mm 0.00 in0.0 mm 0.00 in0.0 mm
11:10 AM 50.2°F10.1°C 39.7°F4.3°C 67% 1.6 mph WNW2.6 kmh WNW 2.2 mph3.5 kmh 30.47 in1031.8 mb 0.00 in0.0 mm 0.00 in0.0 mm 0.00 in0.0 mm
11:15 AM 50.4°F10.2°C 39.8°F4.3°C 67% 0.7 mph WNW1.1 kmh WNW 2.2 mph3.5 kmh 30.47 in1031.8 mb 0.00 in0.0 mm 0.00 in0.0 mm 0.00 in0.0 mm
11:20 AM 50.5°F10.3°C 39.6°F4.2°C 66% Calm Calm 2.2 mph3.5 kmh 30.46 in1031.5 mb 0.00 in0.0 mm 0.00 in0.0 mm 0.00 in0.0 mm
11:25 AM 51.1°F10.6°C 40.1°F4.5°C 66% 1.6 mph W2.6 kmh W 2.2 mph3.5 kmh 30.46 in1031.5 mb 0.00 in0.0 mm 0.00 in0.0 mm 0.00 in0.0 mm
11:30 AM 51.3°F10.7°C 39.9°F4.4°C 65% 1.6 mph WNW2.6 kmh WNW 2.2 mph3.5 kmh 30.46 in1031.5 mb 0.00 in0.0 mm 0.00 in0.0 mm 0.00 in0.0 mm
11:35 AM 51.4°F10.8°C 40.1°F4.5°C 65% 0.7 mph W1.1 kmh W 3.1 mph5.0 kmh 30.46 in1031.5 mb 0.00 in0.0 mm 0.00 in0.0 mm 0.00 in0.0 mm
11:40 AM 52.0°F11.1°C 39.8°F4.3°C 63% 1.6 mph WSW2.6 kmh WSW 3.1 mph5.0 kmh 30.45 in1031.2 mb 0.00 in0.0 mm 0.00 in0.0 mm 0.00 in0.0 mm
11:45 AM 52.7°F11.5°C 40.5°F4.7°C 63% 0.7 mph SW1.1 kmh SW 3.8 mph6.1 kmh 30.45 in1031.2 mb 0.00 in0.0 mm 0.00 in0.0 mm 0.00 in0.0 mm
11:50 AM 53.2°F11.8°C 41.0°F5.0°C 63% 2.2 mph WSW3.5 kmh WSW 3.8 mph6.1 kmh 30.45 in1031.2 mb 0.00 in0.0 mm 0.00 in0.0 mm 0.00 in0.0 mm
11:55 AM 53.2°F11.8°C 41.0°F5.0°C 63% 1.6 mph WSW2.6 kmh WSW 3.8 mph6.1 kmh 30.45 in1031.2 mb 0.00 in0.0 mm 0.00 in0.0 mm 0.00 in0.0 mm
12:00 PM 53.1°F11.7°C 40.8°F4.9°C 63% 1.6 mph WSW2.6 kmh WSW 4.5 mph7.2 kmh 30.45 in1031.2 mb 0.00 in0.0 mm 0.00 in0.0 mm 0.00 in0.0 mm
12:05 PM 53.1°F11.7°C 40.8°F4.9°C 63% 1.6 mph WSW2.6 kmh WSW 4.5 mph7.2 kmh 30.45 in1031.2 mb 0.00 in0.0 mm 0.00 in0.0 mm 0.00 in0.0 mm
12:10 PM 53.4°F11.9°C 41.6°F5.3°C 64% 1.6 mph W2.6 kmh W 3.8 mph6.1 kmh 30.45 in1031.2 mb 0.00 in0.0 mm 0.00 in0.0 mm 0.00 in0.0 mm
12:15 PM 53.6°F12.0°C 40.9°F4.9°C 62% 0.7 mph NW1.1 kmh NW 3.8 mph6.1 kmh 30.44 in1030.8 mb 0.00 in0.0 mm 0.00 in0.0 mm 0.00 in0.0 mm
12:20 PM 54.1°F12.3°C 41.4°F5.2°C 62% 0.7 mph NW1.1 kmh NW 3.8 mph6.1 kmh 30.44 in1030.8 mb 0.00 in0.0 mm 0.00 in0.0 mm 0.00 in0.0 mm
12:25 PM 55.0°F12.8°C 42.3°F5.7°C 62% 0.7 mph WNW1.1 kmh WNW 3.1 mph5.0 kmh 30.43 in1030.5 mb 0.00 in0.0 mm 0.00 in0.0 mm 0.00 in0.0 mm
12:30 PM 55.9°F13.3°C 42.7°F5.9°C 61% 0.7 mph NW1.1 kmh NW 3.8 mph6.1 kmh 30.44 in1030.8 mb 0.00 in0.0 mm 0.00 in0.0 mm 0.00 in0.0 mm
12:35 PM 56.7°F13.7°C 42.5°F5.8°C 59% 0.7 mph W1.1 kmh W 3.8 mph6.1 kmh 30.43 in1030.5 mb 0.00 in0.0 mm 0.00 in0.0 mm 0.00 in0.0 mm
12:40 PM 57.6°F14.2°C 42.5°F5.8°C 57% 1.6 mph S2.6 kmh S 3.1 mph5.0 kmh 30.43 in1030.5 mb 0.00 in0.0 mm 0.00 in0.0 mm 0.00 in0.0 mm
12:45 PM 58.5°F14.7°C 42.8°F6.0°C 56% 1.6 mph SW2.6 kmh SW 3.8 mph6.1 kmh 30.43 in1030.5 mb 0.00 in0.0 mm 0.00 in0.0 mm 0.00 in0.0 mm
12:50 PM 58.5°F14.7°C 42.4°F5.8°C 55% 1.6 mph W2.6 kmh W 3.8 mph6.1 kmh 30.43 in1030.5 mb 0.00 in0.0 mm 0.00 in0.0 mm 0.00 in0.0 mm
12:55 PM 58.8°F14.9°C 42.7°F5.9°C 55% 2.2 mph WNW3.5 kmh WNW 3.8 mph6.1 kmh 30.43 in1030.5 mb 0.00 in0.0 mm 0.00 in0.0 mm 0.00 in0.0 mm
01:00 PM 59.0°F15.0°C 41.9°F5.5°C 53% 2.2 mph W3.5 kmh W 3.8 mph6.1 kmh 30.42 in1030.1 mb 0.00 in0.0 mm 0.00 in0.0 mm 0.00 in0.0 mm
01:05 PM 59.4°F15.2°C 42.2°F5.7°C 53% 2.2 mph W3.5 kmh W 3.8 mph6.1 kmh 30.42 in1030.1 mb 0.00 in0.0 mm 0.00 in0.0 mm 0.00 in0.0 mm
01:10 PM 59.7°F15.4°C 41.6°F5.3°C 51% Calm Calm 4.5 mph7.2 kmh 30.42 in1030.1 mb 0.00 in0.0 mm 0.00 in0.0 mm 0.00 in0.0 mm
01:15 PM 60.3°F15.7°C 42.1°F5.6°C 51% 1.6 mph SW2.6 kmh SW 4.5 mph7.2 kmh 30.42 in1030.1 mb 0.00 in0.0 mm 0.00 in0.0 mm 0.00 in0.0 mm
01:20 PM 61.0°F16.1°C 41.7°F5.4°C 49% 1.6 mph SW2.6 kmh SW 3.8 mph6.1 kmh 30.41 in1029.8 mb 0.00 in0.0 mm 0.00 in0.0 mm 0.00 in0.0 mm
01:25 PM 61.3°F16.3°C 41.0°F5.0°C 47% 1.6 mph SW2.6 kmh SW 3.8 mph6.1 kmh 30.41 in1029.8 mb 0.00 in0.0 mm 0.00 in0.0 mm 0.00 in0.0 mm
01:30 PM 61.7°F16.5°C 40.7°F4.8°C 46% 2.2 mph SW3.5 kmh SW 3.8 mph6.1 kmh 30.41 in1029.8 mb 0.00 in0.0 mm 0.00 in0.0 mm 0.00 in0.0 mm
01:35 PM 61.9°F16.6°C 40.9°F4.9°C 46% 1.6 mph S2.6 kmh S 5.4 mph8.7 kmh 30.41 in1029.8 mb 0.00 in0.0 mm 0.00 in0.0 mm 0.00 in0.0 mm
01:40 PM 62.6°F17.0°C 40.4°F4.7°C 44% 1.6 mph SSE2.6 kmh SSE 5.4 mph8.7 kmh 30.40 in1029.5 mb 0.00 in0.0 mm 0.00 in0.0 mm 0.00 in0.0 mm
01:45 PM 63.0°F17.2°C 40.7°F4.8°C 44% 1.6 mph S2.6 kmh S 3.1 mph5.0 kmh 30.40 in1029.5 mb 0.00 in0.0 mm 0.00 in0.0 mm 0.00 in0.0 mm
01:50 PM 62.8°F17.1°C 39.4°F4.1°C 42% Calm Calm 3.8 mph6.1 kmh 30.40 in1029.5 mb 0.00 in0.0 mm 0.00 in0.0 mm 0.00 in0.0 mm
01:55 PM 63.3°F17.4°C 41.1°F5.1°C 44% 0.7 mph W1.1 kmh W 3.8 mph6.1 kmh 30.39 in1029.1 mb 0.00 in0.0 mm 0.00 in0.0 mm 0.00 in0.0 mm
02:00 PM 63.7°F17.6°C 41.4°F5.2°C 44% 1.6 mph WSW2.6 kmh WSW 3.1 mph5.0 kmh 30.39 in1029.1 mb 0.00 in0.0 mm 0.00 in0.0 mm 0.00 in0.0 mm
02:05 PM 64.4°F18.0°C 41.4°F5.2°C 43% 1.6 mph SSW2.6 kmh SSW 3.1 mph5.0 kmh 30.39 in1029.1 mb 0.00 in0.0 mm 0.00 in0.0 mm 0.00 in0.0 mm
02:10 PM 64.4°F18.0°C 42.0°F5.6°C 44% Calm Calm 3.8 mph6.1 kmh 30.38 in1028.8 mb 0.00 in0.0 mm 0.00 in0.0 mm 0.00 in0.0 mm
02:15 PM 64.9°F18.3°C 41.9°F5.5°C 43% 1.6 mph NW2.6 kmh NW 3.8 mph6.1 kmh 30.38 in1028.8 mb 0.00 in0.0 mm 0.00 in0.0 mm 0.00 in0.0 mm
02:20 PM 65.1°F18.4°C 42.1°F5.6°C 43% 0.7 mph WNW1.1 kmh WNW 4.5 mph7.2 kmh 30.38 in1028.8 mb 0.00 in0.0 mm 0.00 in0.0 mm 0.00 in0.0 mm
02:25 PM 65.5°F18.6°C 41.8°F5.4°C 42% 3.1 mph W5.0 kmh W 4.5 mph7.2 kmh 30.38 in1028.8 mb 0.00 in0.0 mm 0.00 in0.0 mm 0.00 in0.0 mm
02:30 PM 65.7°F18.7°C 42.0°F5.6°C 42% 0.7 mph WNW1.1 kmh WNW 3.8 mph6.1 kmh 30.37 in1028.4 mb 0.00 in0.0 mm 0.00 in0.0 mm 0.00 in0.0 mm
02:35 PM 66.0°F18.9°C 41.7°F5.4°C 41% 1.6 mph N2.6 kmh N 3.8 mph6.1 kmh 30.37 in1028.4 mb 0.00 in0.0 mm 0.00 in0.0 mm 0.00 in0.0 mm
02:40 PM 67.1°F19.5°C 42.0°F5.6°C 40% 1.6 mph NW2.6 kmh NW 3.1 mph5.0 kmh 30.36 in1028.1 mb 0.00 in0.0 mm 0.00 in0.0 mm 0.00 in0.0 mm
02:45 PM 67.5°F19.7°C 42.3°F5.7°C 40% 1.6 mph W2.6 kmh W 3.1 mph5.0 kmh 30.36 in1028.1 mb 0.00 in0.0 mm 0.00 in0.0 mm 0.00 in0.0 mm
02:50 PM 67.8°F19.9°C 41.3°F5.2°C 38% 1.6 mph WSW2.6 kmh WSW 3.1 mph5.0 kmh 30.36 in1028.1 mb 0.00 in0.0 mm 0.00 in0.0 mm 0.00 in0.0 mm
02:55 PM 67.6°F19.8°C 41.1°F5.1°C 38% Calm Calm 3.1 mph5.0 kmh 30.36 in1028.1 mb 0.00 in0.0 mm 0.00 in0.0 mm 0.00 in0.0 mm
03:00 PM 68.2°F20.1°C 40.2°F4.6°C 36% 0.7 mph W1.1 kmh W 3.1 mph5.0 kmh 30.36 in1028.1 mb 0.00 in0.0 mm 0.00 in0.0 mm 0.00 in0.0 mm
03:05 PM 68.4°F20.2°C 39.7°F4.3°C 35% Calm Calm 3.8 mph6.1 kmh 30.36 in1028.1 mb 0.00 in0.0 mm 0.00 in0.0 mm 0.00 in0.0 mm
03:10 PM 68.9°F20.5°C 39.4°F4.1°C 34% 1.6 mph W2.6 kmh W 3.8 mph6.1 kmh 30.35 in1027.8 mb 0.00 in0.0 mm 0.00 in0.0 mm 0.00 in0.0 mm
03:15 PM 69.3°F20.7°C 39.7°F4.3°C 34% 0.7 mph WSW1.1 kmh WSW 3.1 mph5.0 kmh 30.35 in1027.8 mb 0.00 in0.0 mm 0.00 in0.0 mm 0.00 in0.0 mm
03:20 PM 69.8°F21.0°C 38.6°F3.7°C 32% 1.6 mph W2.6 kmh W 3.1 mph5.0 kmh 30.35 in1027.8 mb 0.00 in0.0 mm 0.00 in0.0 mm 0.00 in0.0 mm
03:25 PM 70.0°F21.1°C 38.8°F3.8°C 32% Calm Calm 3.1 mph5.0 kmh 30.34 in1027.4 mb 0.00 in0.0 mm 0.00 in0.0 mm 0.00 in0.0 mm
03:30 PM 70.3°F21.3°C 39.1°F3.9°C 32% 1.6 mph NW2.6 kmh NW 3.1 mph5.0 kmh 30.34 in1027.4 mb 0.00 in0.0 mm 0.00 in0.0 mm 0.00 in0.0 mm
03:35 PM 70.9°F21.6°C 39.6°F4.2°C 32% 2.2 mph W3.5 kmh W 3.1 mph5.0 kmh 30.34 in1027.4 mb 0.00 in0.0 mm 0.00 in0.0 mm 0.00 in0.0 mm
03:40 PM 70.9°F21.6°C 39.6°F4.2°C 32% 2.2 mph W3.5 kmh W 3.1 mph5.0 kmh 30.34 in1027.4 mb 0.00 in0.0 mm 0.00 in0.0 mm 0.00 in0.0 mm
03:45 PM 71.1°F21.7°C 39.7°F4.3°C 32% 2.2 mph WNW3.5 kmh WNW 3.8 mph6.1 kmh 30.34 in1027.4 mb 0.00 in0.0 mm 0.00 in0.0 mm 0.00 in0.0 mm
03:50 PM 71.4°F21.9°C 37.5°F3.1°C 29% 0.7 mph W1.1 kmh W 3.8 mph6.1 kmh 30.34 in1027.4 mb 0.00 in0.0 mm 0.00 in0.0 mm 0.00 in0.0 mm
03:55 PM 71.4°F21.9°C 38.4°F3.6°C 30% 1.6 mph WSW2.6 kmh WSW 3.8 mph6.1 kmh 30.34 in1027.4 mb 0.00 in0.0 mm 0.00 in0.0 mm 0.00 in0.0 mm
04:00 PM 71.8°F22.1°C 36.0°F2.2°C 27% 2.2 mph WNW3.5 kmh WNW 3.8 mph6.1 kmh 30.33 in1027.1 mb 0.00 in0.0 mm 0.00 in0.0 mm 0.00 in0.0 mm
04:05 PM 71.8°F22.1°C 35.1°F1.7°C 26% 2.2 mph WNW3.5 kmh WNW 3.8 mph6.1 kmh 30.32 in1026.8 mb 0.00 in0.0 mm 0.00 in0.0 mm 0.00 in0.0 mm
04:10 PM 71.8°F22.1°C 36.0°F2.2°C 27% 2.2 mph WNW3.5 kmh WNW 3.8 mph6.1 kmh 30.33 in1027.1 mb 0.00 in0.0 mm 0.00 in0.0 mm 0.00 in0.0 mm
04:15 PM 72.0°F22.2°C 35.2°F1.8°C 26% 0.7 mph WNW1.1 kmh WNW 4.5 mph7.2 kmh 30.33 in1027.1 mb 0.00 in0.0 mm 0.00 in0.0 mm 0.00 in0.0 mm
04:20 PM 71.8°F22.1°C 33.1°F0.6°C 24% 1.6 mph WSW2.6 kmh WSW 4.5 mph7.2 kmh 30.33 in1027.1 mb 0.00 in0.0 mm 0.00 in0.0 mm 0.00 in0.0 mm
04:25 PM 72.0°F22.2°C 34.3°F1.3°C 25% 1.6 mph WSW2.6 kmh WSW 3.1 mph5.0 kmh 30.32 in1026.8 mb 0.00 in0.0 mm 0.00 in0.0 mm 0.00 in0.0 mm
04:30 PM 72.3°F22.4°C 33.5°F0.8°C 24% 1.6 mph NW2.6 kmh NW 3.1 mph5.0 kmh 30.32 in1026.8 mb 0.00 in0.0 mm 0.00 in0.0 mm 0.00 in0.0 mm
04:35 PM 72.7°F22.6°C 32.8°F0.4°C 23% Calm Calm 3.1 mph5.0 kmh 30.32 in1026.8 mb 0.00 in0.0 mm 0.00 in0.0 mm 0.00 in0.0 mm
04:40 PM 72.7°F22.6°C 32.8°F0.4°C 23% 2.2 mph WNW3.5 kmh WNW 3.8 mph6.1 kmh 30.32 in1026.8 mb 0.00 in0.0 mm 0.00 in0.0 mm 0.00 in0.0 mm
04:45 PM 72.7°F22.6°C 32.8°F0.4°C 23% 3.1 mph W5.0 kmh W 4.5 mph7.2 kmh 30.32 in1026.8 mb 0.00 in0.0 mm 0.00 in0.0 mm 0.00 in0.0 mm
04:50 PM 72.0°F22.2°C 32.2°F0.1°C 23% 2.2 mph WSW3.5 kmh WSW 4.5 mph7.2 kmh 30.32 in1026.8 mb 0.00 in0.0 mm 0.00 in0.0 mm 0.00 in0.0 mm
04:55 PM 71.8°F22.1°C 32.0°F0.0°C 23% 1.6 mph WSW2.6 kmh WSW 4.5 mph7.2 kmh 30.32 in1026.8 mb 0.00 in0.0 mm 0.00 in0.0 mm 0.00 in0.0 mm
05:00 PM 72.1°F22.3°C 31.2°F-0.4°C 22% 1.6 mph SSW2.6 kmh SSW 3.8 mph6.1 kmh 30.32 in1026.8 mb 0.00 in0.0 mm 0.00 in0.0 mm 0.00 in0.0 mm
05:05 PM 72.1°F22.3°C 36.3°F2.4°C 27% 0.7 mph S1.1 kmh S 3.8 mph6.1 kmh 30.32 in1026.8 mb 0.00 in0.0 mm 0.00 in0.0 mm 0.00 in0.0 mm
05:10 PM 72.1°F22.3°C 31.2°F-0.4°C 22% 0.7 mph S1.1 kmh S 3.1 mph5.0 kmh 30.32 in1026.8 mb 0.00 in0.0 mm 0.00 in0.0 mm 0.00 in0.0 mm
05:15 PM 72.1°F22.3°C 32.3°F0.2°C 23% Calm Calm 3.1 mph5.0 kmh 30.32 in1026.8 mb 0.00 in0.0 mm 0.00 in0.0 mm 0.00 in0.0 mm
05:20 PM 72.3°F22.4°C 32.5°F0.3°C 23% 2.2 mph NW3.5 kmh NW 3.1 mph5.0 kmh 30.33 in1027.1 mb 0.00 in0.0 mm 0.00 in0.0 mm 0.00 in0.0 mm
05:25 PM 72.0°F22.2°C 29.9°F-1.2°C 21% Calm Calm 3.1 mph5.0 kmh 30.32 in1026.8 mb 0.00 in0.0 mm 0.00 in0.0 mm 0.00 in0.0 mm
05:30 PM 72.1°F22.3°C 31.2°F-0.4°C 22% 1.6 mph W2.6 kmh W 3.1 mph5.0 kmh 30.32 in1026.8 mb 0.00 in0.0 mm 0.00 in0.0 mm 0.00 in0.0 mm
05:35 PM 72.3°F22.4°C 31.4°F-0.3°C 22% 0.7 mph WNW1.1 kmh WNW 3.1 mph5.0 kmh 30.32 in1026.8 mb 0.00 in0.0 mm 0.00 in0.0 mm 0.00 in0.0 mm
05:40 PM 72.7°F22.6°C 31.7°F-0.2°C 22% 0.7 mph WNW1.1 kmh WNW 3.1 mph5.0 kmh 30.31 in1026.4 mb 0.00 in0.0 mm 0.00 in0.0 mm 0.00 in0.0 mm
05:45 PM 72.9°F22.7°C 30.7°F-0.7°C 21% Calm Calm 3.1 mph5.0 kmh 30.32 in1026.8 mb 0.00 in0.0 mm 0.00 in0.0 mm 0.00 in0.0 mm
05:50 PM 73.2°F22.9°C 32.1°F0.1°C 22% 2.2 mph WSW3.5 kmh WSW 3.1 mph5.0 kmh 30.31 in1026.4 mb 0.00 in0.0 mm 0.00 in0.0 mm 0.00 in0.0 mm
05:55 PM 73.4°F23.0°C 31.1°F-0.5°C 21% 2.2 mph WSW3.5 kmh WSW 3.8 mph6.1 kmh 30.31 in1026.4 mb 0.00 in0.0 mm 0.00 in0.0 mm 0.00 in0.0 mm
06:00 PM 73.2°F22.9°C 25.8°F-3.4°C 17% Calm Calm 3.8 mph6.1 kmh 30.31 in1026.4 mb 0.00 in0.0 mm 0.00 in0.0 mm 0.00 in0.0 mm
06:05 PM 73.2°F22.9°C 25.8°F-3.4°C 17% 0.7 mph W1.1 kmh W 3.1 mph5.0 kmh 30.31 in1026.4 mb 0.00 in0.0 mm 0.00 in0.0 mm 0.00 in0.0 mm
06:10 PM 72.9°F22.7°C 25.5°F-3.6°C 17% 1.6 mph W2.6 kmh W 3.1 mph5.0 kmh 30.31 in1026.4 mb 0.00 in0.0 mm 0.00 in0.0 mm 0.00 in0.0 mm
06:15 PM 72.9°F22.7°C 26.9°F-2.8°C 18% 0.7 mph W1.1 kmh W 2.2 mph3.5 kmh 30.31 in1026.4 mb 0.00 in0.0 mm 0.00 in0.0 mm 0.00 in0.0 mm
06:20 PM 72.3°F22.4°C 27.8°F-2.3°C 19% 0.7 mph W1.1 kmh W 2.2 mph3.5 kmh 30.31 in1026.4 mb 0.00 in0.0 mm 0.00 in0.0 mm 0.00 in0.0 mm
06:25 PM 71.8°F22.1°C 26.0°F-3.3°C 18% 0.7 mph W1.1 kmh W 1.6 mph2.6 kmh 30.31 in1026.4 mb 0.00 in0.0 mm 0.00 in0.0 mm 0.00 in0.0 mm
06:30 PM 71.1°F21.7°C 30.3°F-0.9°C 22% 0.7 mph WNW1.1 kmh WNW 1.6 mph2.6 kmh 30.31 in1026.4 mb 0.00 in0.0 mm 0.00 in0.0 mm 0.00 in0.0 mm
06:35 PM 70.2°F21.2°C 29.6°F-1.3°C 22% 0.7 mph WNW1.1 kmh WNW 1.6 mph2.6 kmh 30.31 in1026.4 mb 0.00 in0.0 mm 0.00 in0.0 mm 0.00 in0.0 mm
06:40 PM 69.1°F20.6°C 30.8°F-0.7°C 24% 0.7 mph W1.1 kmh W 1.6 mph2.6 kmh 30.31 in1026.4 mb 0.00 in0.0 mm 0.00 in0.0 mm 0.00 in0.0 mm
06:45 PM 68.5°F20.3°C 32.3°F0.2°C 26% 0.7 mph W1.1 kmh W 1.6 mph2.6 kmh 30.31 in1026.4 mb 0.00 in0.0 mm 0.00 in0.0 mm 0.00 in0.0 mm
06:50 PM 67.8°F19.9°C 32.6°F0.3°C 27% 0.7 mph WNW1.1 kmh WNW 1.6 mph2.6 kmh 30.31 in1026.4 mb 0.00 in0.0 mm 0.00 in0.0 mm 0.00 in0.0 mm
06:55 PM 67.3°F19.6°C 33.1°F0.6°C 28% Calm Calm 1.6 mph2.6 kmh 30.31 in1026.4 mb 0.00 in0.0 mm 0.00 in0.0 mm 0.00 in0.0 mm
07:00 PM 66.4°F19.1°C 33.2°F0.7°C 29% Calm Calm 1.6 mph2.6 kmh 30.31 in1026.4 mb 0.00 in0.0 mm 0.00 in0.0 mm 0.00 in0.0 mm
07:05 PM 65.7°F18.7°C 36.6°F2.6°C 34% Calm Calm 0.7 mph1.1 kmh 30.31 in1026.4 mb 0.00 in0.0 mm 0.00 in0.0 mm 0.00 in0.0 mm
07:10 PM 64.8°F18.2°C 36.5°F2.5°C 35% Calm Calm 0.7 mph1.1 kmh 30.31 in1026.4 mb 0.00 in0.0 mm 0.00 in0.0 mm 0.00 in0.0 mm
07:15 PM 64.0°F17.8°C 35.9°F2.2°C 35% Calm Calm 0.7 mph1.1 kmh 30.31 in1026.4 mb 0.00 in0.0 mm 0.00 in0.0 mm 0.00 in0.0 mm
07:20 PM 63.0°F17.2°C 34.9°F1.6°C 35% 0.7 mph E1.1 kmh E 1.6 mph2.6 kmh 30.31 in1026.4 mb 0.00 in0.0 mm 0.00 in0.0 mm 0.00 in0.0 mm
07:25 PM 62.2°F16.8°C 35.7°F2.1°C 37% 0.7 mph SE1.1 kmh SE 2.2 mph3.5 kmh 30.31 in1026.4 mb 0.00 in0.0 mm 0.00 in0.0 mm 0.00 in0.0 mm
07:30 PM 61.7°F16.5°C 37.8°F3.2°C 41% Calm Calm 2.2 mph3.5 kmh 30.31 in1026.4 mb 0.00 in0.0 mm 0.00 in0.0 mm 0.00 in0.0 mm
07:35 PM 60.8°F16.0°C 37.6°F3.1°C 42% 2.2 mph NE3.5 kmh NE 3.8 mph6.1 kmh 30.31 in1026.4 mb 0.00 in0.0 mm 0.00 in0.0 mm 0.00 in0.0 mm
07:40 PM 59.9°F15.5°C 37.4°F3.0°C 43% 2.2 mph ENE3.5 kmh ENE 3.8 mph6.1 kmh 30.32 in1026.8 mb 0.00 in0.0 mm 0.00 in0.0 mm 0.00 in0.0 mm
07:45 PM 59.4°F15.2°C 36.9°F2.7°C 43% 0.7 mph E1.1 kmh E 3.1 mph5.0 kmh 30.32 in1026.8 mb 0.00 in0.0 mm 0.00 in0.0 mm 0.00 in0.0 mm
07:50 PM 59.0°F15.0°C 37.1°F2.8°C 44% 0.7 mph E1.1 kmh E 3.1 mph5.0 kmh 30.32 in1026.8 mb 0.00 in0.0 mm 0.00 in0.0 mm 0.00 in0.0 mm
07:55 PM 58.3°F14.6°C 37.6°F3.1°C 46% 1.6 mph NE2.6 kmh NE 2.2 mph3.5 kmh 30.32 in1026.8 mb 0.00 in0.0 mm 0.00 in0.0 mm 0.00 in0.0 mm
08:00 PM 57.6°F14.2°C 38.0°F3.3°C 48% 1.6 mph NE2.6 kmh NE 2.2 mph3.5 kmh 30.32 in1026.8 mb 0.00 in0.0 mm 0.00 in0.0 mm 0.00 in0.0 mm
08:05 PM 57.0°F13.9°C 38.6°F3.7°C 50% 1.6 mph NE2.6 kmh NE 3.1 mph5.0 kmh 30.32 in1026.8 mb 0.00 in0.0 mm 0.00 in0.0 mm 0.00 in0.0 mm
08:10 PM 56.5°F13.6°C 39.1°F3.9°C 52% 0.7 mph NE1.1 kmh NE 3.1 mph5.0 kmh 30.32 in1026.8 mb 0.00 in0.0 mm 0.00 in0.0 mm 0.00 in0.0 mm
08:15 PM 55.9°F13.3°C 39.5°F4.2°C 54% Calm Calm 2.2 mph3.5 kmh 30.32 in1026.8 mb 0.00 in0.0 mm 0.00 in0.0 mm 0.00 in0.0 mm
08:20 PM 55.2°F12.9°C 38.9°F3.8°C 54% Calm Calm 1.6 mph2.6 kmh 30.33 in1027.1 mb 0.00 in0.0 mm 0.00 in0.0 mm 0.00 in0.0 mm
08:25 PM 54.5°F12.5°C 38.7°F3.7°C 55% 1.6 mph N2.6 kmh N 3.1 mph5.0 kmh 30.33 in1027.1 mb 0.00 in0.0 mm 0.00 in0.0 mm 0.00 in0.0 mm
08:30 PM 54.1°F12.3°C 38.8°F3.8°C 56% 0.7 mph NE1.1 kmh NE 3.1 mph5.0 kmh 30.33 in1027.1 mb 0.00 in0.0 mm 0.00 in0.0 mm 0.00 in0.0 mm
08:35 PM 54.0°F12.2°C 39.1°F3.9°C 57% 2.2 mph ENE3.5 kmh ENE 3.8 mph6.1 kmh 30.32 in1026.8 mb 0.00 in0.0 mm 0.00 in0.0 mm 0.00 in0.0 mm
08:40 PM 53.8°F12.1°C 39.4°F4.1°C 58% 1.6 mph ENE2.6 kmh ENE 3.8 mph6.1 kmh 30.33 in1027.1 mb 0.00 in0.0 mm 0.00 in0.0 mm 0.00 in0.0 mm
08:45 PM 53.6°F12.0°C 39.6°F4.2°C 59% 1.6 mph E2.6 kmh E 3.8 mph6.1 kmh 30.33 in1027.1 mb 0.00 in0.0 mm 0.00 in0.0 mm 0.00 in0.0 mm
08:50 PM 53.4°F11.9°C 39.9°F4.4°C 60% 3.1 mph E5.0 kmh E 4.5 mph7.2 kmh 30.33 in1027.1 mb 0.00 in0.0 mm 0.00 in0.0 mm 0.00 in0.0 mm
08:55 PM 53.1°F11.7°C 39.6°F4.2°C 60% 2.2 mph E3.5 kmh E 4.5 mph7.2 kmh 30.33 in1027.1 mb 0.00 in0.0 mm 0.00 in0.0 mm 0.00 in0.0 mm
09:00 PM 52.7°F11.5°C 39.6°F4.2°C 61% 1.6 mph E2.6 kmh E 4.5 mph7.2 kmh 30.33 in1027.1 mb 0.00 in0.0 mm 0.00 in0.0 mm 0.00 in0.0 mm
09:05 PM 52.3°F11.3°C 39.3°F4.1°C 61% 2.2 mph E3.5 kmh E 3.8 mph6.1 kmh 30.33 in1027.1 mb 0.00 in0.0 mm 0.00 in0.0 mm 0.00 in0.0 mm
09:10 PM 52.0°F11.1°C 39.4°F4.1°C 62% 1.6 mph E2.6 kmh E 3.1 mph5.0 kmh 30.33 in1027.1 mb 0.00 in0.0 mm 0.00 in0.0 mm 0.00 in0.0 mm
09:15 PM 51.6°F10.9°C 39.4°F4.1°C 63% 1.6 mph E2.6 kmh E 3.1 mph5.0 kmh 30.33 in1027.1 mb 0.00 in0.0 mm 0.00 in0.0 mm 0.00 in0.0 mm
09:20 PM 51.4°F10.8°C 39.3°F4.1°C 63% Calm Calm 3.1 mph5.0 kmh 30.33 in1027.1 mb 0.00 in0.0 mm 0.00 in0.0 mm 0.00 in0.0 mm
09:25 PM 51.1°F10.6°C 39.3°F4.1°C 64% 1.6 mph E2.6 kmh E 3.1 mph5.0 kmh 30.33 in1027.1 mb 0.00 in0.0 mm 0.00 in0.0 mm 0.00 in0.0 mm
09:30 PM 50.5°F10.3°C 38.8°F3.8°C 64% 0.7 mph NW1.1 kmh NW 3.1 mph5.0 kmh 30.33 in1027.1 mb 0.00 in0.0 mm 0.00 in0.0 mm 0.00 in0.0 mm
09:35 PM 49.8°F9.9°C 38.9°F3.8°C 66% Calm Calm 3.1 mph5.0 kmh 30.33 in1027.1 mb 0.00 in0.0 mm 0.00 in0.0 mm 0.00 in0.0 mm
09:40 PM 49.3°F9.6°C 38.4°F3.6°C 66% 1.6 mph N2.6 kmh N 2.2 mph3.5 kmh 30.34 in1027.4 mb 0.00 in0.0 mm 0.00 in0.0 mm 0.00 in0.0 mm
09:45 PM 48.7°F9.3°C 38.3°F3.5°C 67% 1.6 mph ENE2.6 kmh ENE 3.1 mph5.0 kmh 30.33 in1027.1 mb 0.00 in0.0 mm 0.00 in0.0 mm 0.00 in0.0 mm
09:50 PM 48.6°F9.2°C 38.5°F3.6°C 68% 1.6 mph NE2.6 kmh NE 3.1 mph5.0 kmh 30.33 in1027.1 mb 0.00 in0.0 mm 0.00 in0.0 mm 0.00 in0.0 mm
09:55 PM 48.2°F9.0°C 38.1°F3.4°C 68% 3.1 mph NE5.0 kmh NE 3.8 mph6.1 kmh 30.33 in1027.1 mb 0.00 in0.0 mm 0.00 in0.0 mm 0.00 in0.0 mm
10:00 PM 48.2°F9.0°C 38.5°F3.6°C 69% 1.6 mph E2.6 kmh E 3.8 mph6.1 kmh 30.34 in1027.4 mb 0.00 in0.0 mm 0.00 in0.0 mm 0.00 in0.0 mm
10:05 PM 47.8°F8.8°C 38.5°F3.6°C 70% 1.6 mph E2.6 kmh E 3.8 mph6.1 kmh 30.33 in1027.1 mb 0.00 in0.0 mm 0.00 in0.0 mm 0.00 in0.0 mm
10:10 PM 47.5°F8.6°C 38.2°F3.4°C 70% Calm Calm 2.2 mph3.5 kmh 30.34 in1027.4 mb 0.00 in0.0 mm 0.00 in0.0 mm 0.00 in0.0 mm
10:15 PM 47.1°F8.4°C 37.8°F3.2°C 70% Calm Calm 2.2 mph3.5 kmh 30.34 in1027.4 mb 0.00 in0.0 mm 0.00 in0.0 mm 0.00 in0.0 mm
10:20 PM 46.6°F8.1°C 37.3°F2.9°C 70% 1.6 mph ENE2.6 kmh ENE 2.2 mph3.5 kmh 30.34 in1027.4 mb 0.00 in0.0 mm 0.00 in0.0 mm 0.00 in0.0 mm
10:25 PM 46.4°F8.0°C 37.9°F3.3°C 72% 3.1 mph E5.0 kmh E 3.8 mph6.1 kmh 30.34 in1027.4 mb 0.00 in0.0 mm 0.00 in0.0 mm 0.00 in0.0 mm
10:30 PM 46.6°F8.1°C 38.0°F3.3°C 72% 3.1 mph E5.0 kmh E 4.5 mph7.2 kmh 30.34 in1027.4 mb 0.00 in0.0 mm 0.00 in0.0 mm 0.00 in0.0 mm
10:35 PM 46.8°F8.2°C 37.9°F3.3°C 71% 3.1 mph E5.0 kmh E 4.5 mph7.2 kmh 30.34 in1027.4 mb 0.00 in0.0 mm 0.00 in0.0 mm 0.00 in0.0 mm
10:40 PM 46.6°F8.1°C 38.0°F3.3°C 72% 2.2 mph E3.5 kmh E 3.8 mph6.1 kmh 30.35 in1027.8 mb 0.00 in0.0 mm 0.00 in0.0 mm 0.00 in0.0 mm
10:45 PM 46.2°F7.9°C 37.7°F3.2°C 72% 2.2 mph E3.5 kmh E 3.8 mph6.1 kmh 30.35 in1027.8 mb 0.00 in0.0 mm 0.00 in0.0 mm 0.00 in0.0 mm
10:50 PM 46.0°F7.8°C 37.5°F3.1°C 72% 1.6 mph E2.6 kmh E 3.8 mph6.1 kmh 30.35 in1027.8 mb 0.00 in0.0 mm 0.00 in0.0 mm 0.00 in0.0 mm
10:55 PM 46.0°F7.8°C 37.9°F3.3°C 73% 2.2 mph E3.5 kmh E 3.8 mph6.1 kmh 30.35 in1027.8 mb 0.00 in0.0 mm 0.00 in0.0 mm 0.00 in0.0 mm
11:00 PM 45.9°F7.7°C 37.7°F3.2°C 73% 2.2 mph E3.5 kmh E 3.8 mph6.1 kmh 30.35 in1027.8 mb 0.00 in0.0 mm 0.00 in0.0 mm 0.00 in0.0 mm
11:05 PM 45.7°F7.6°C 37.5°F3.1°C 73% 1.6 mph E2.6 kmh E 3.8 mph6.1 kmh 30.36 in1028.1 mb 0.00 in0.0 mm 0.00 in0.0 mm 0.00 in0.0 mm
11:10 PM 45.7°F7.6°C 37.2°F2.9°C 72% 1.6 mph E2.6 kmh E 3.8 mph6.1 kmh 30.35 in1027.8 mb 0.00 in0.0 mm 0.00 in0.0 mm 0.00 in0.0 mm
11:15 PM 45.5°F7.5°C 37.0°F2.8°C 72% 1.6 mph E2.6 kmh E 2.2 mph3.5 kmh 30.35 in1027.8 mb 0.00 in0.0 mm 0.00 in0.0 mm 0.00 in0.0 mm
11:20 PM 45.5°F7.5°C 37.0°F2.8°C 72% 1.6 mph E2.6 kmh E 2.2 mph3.5 kmh 30.35 in1027.8 mb 0.00 in0.0 mm 0.00 in0.0 mm 0.00 in0.0 mm
11:25 PM 45.1°F7.3°C 37.0°F2.8°C 73% 0.7 mph NE1.1 kmh NE 2.2 mph3.5 kmh 30.35 in1027.8 mb 0.00 in0.0 mm 0.00 in0.0 mm 0.00 in0.0 mm
11:30 PM 45.1°F7.3°C 37.0°F2.8°C 73% 2.2 mph NE3.5 kmh NE 3.8 mph6.1 kmh 30.36 in1028.1 mb 0.00 in0.0 mm 0.00 in0.0 mm 0.00 in0.0 mm
11:35 PM 45.3°F7.4°C 37.2°F2.9°C 73% 1.6 mph NE2.6 kmh NE 3.8 mph6.1 kmh 30.35 in1027.8 mb 0.00 in0.0 mm 0.00 in0.0 mm 0.00 in0.0 mm
11:40 PM 45.1°F7.3°C 37.0°F2.8°C 73% 0.7 mph NE1.1 kmh NE 3.8 mph6.1 kmh 30.35 in1027.8 mb 0.00 in0.0 mm 0.00 in0.0 mm 0.00 in0.0 mm
11:45 PM 45.0°F7.2°C 36.8°F2.7°C 73% 0.7 mph NE1.1 kmh NE 2.2 mph3.5 kmh 30.36 in1028.1 mb 0.00 in0.0 mm 0.00 in0.0 mm 0.00 in0.0 mm
11:50 PM 44.6°F7.0°C 36.5°F2.5°C 73% 1.6 mph NE2.6 kmh NE 2.2 mph3.5 kmh 30.35 in1027.8 mb 0.00 in0.0 mm 0.00 in0.0 mm 0.00 in0.0 mm
11:55 PM 44.2°F6.8°C 36.8°F2.7°C 75% 1.6 mph NE2.6 kmh NE 2.2 mph3.5 kmh 30.35 in1027.8 mb 0.00 in0.0 mm 0.00 in0.0 mm 0.00 in0.0 mm